sensor_id;sensor_type;location;lat;lon;timestamp;pressure;altitude;pressure_sealevel;temperature;humidity
38612;BME280;24368;52.156;20.788;2023-01-25T00:00:09;102568.59;;;0.94;100.00
38612;BME280;24368;52.156;20.788;2023-01-25T00:05:31;102563.23;;;0.93;100.00
38612;BME280;24368;52.156;20.788;2023-01-25T00:10:33;102555.55;;;0.95;100.00
38612;BME280;24368;52.156;20.788;2023-01-25T00:15:34;102559.61;;;0.79;100.00
38612;BME280;24368;52.156;20.788;2023-01-25T00:20:36;102563.58;;;0.72;100.00
38612;BME280;24368;52.156;20.788;2023-01-25T00:25:38;102562.59;;;0.62;100.00
38612;BME280;24368;52.156;20.788;2023-01-25T00:30:39;102565.70;;;0.77;100.00
38612;BME280;24368;52.156;20.788;2023-01-25T00:35:43;102558.70;;;1.01;100.00
38612;BME280;24368;52.156;20.788;2023-01-25T00:40:48;102556.58;;;1.02;100.00
38612;BME280;24368;52.156;20.788;2023-01-25T00:45:49;102546.50;;;0.82;100.00
38612;BME280;24368;52.156;20.788;2023-01-25T00:50:51;102547.66;;;0.77;100.00
38612;BME280;24368;52.156;20.788;2023-01-25T00:55:53;102546.59;;;0.78;100.00
38612;BME280;24368;52.156;20.788;2023-01-25T01:00:56;102536.29;;;0.67;100.00
38612;BME280;24368;52.156;20.788;2023-01-25T01:06:03;102532.86;;;0.72;100.00
38612;BME280;24368;52.156;20.788;2023-01-25T01:11:08;102532.33;;;0.73;100.00
38612;BME280;24368;52.156;20.788;2023-01-25T01:16:12;102532.86;;;0.65;100.00
38612;BME280;24368;52.156;20.788;2023-01-25T01:21:14;102533.81;;;0.61;100.00
38612;BME280;24368;52.156;20.788;2023-01-25T01:26:16;102522.90;;;0.68;100.00
38612;BME280;24368;52.156;20.788;2023-01-25T01:31:22;102518.65;;;0.64;100.00
38612;BME280;24368;52.156;20.788;2023-01-25T01:36:26;102522.77;;;0.59;100.00
38612;BME280;24368;52.156;20.788;2023-01-25T01:41:28;102525.46;;;0.56;100.00
38612;BME280;24368;52.156;20.788;2023-01-25T01:46:34;102514.23;;;0.53;100.00
38612;BME280;24368;52.156;20.788;2023-01-25T01:51:59;102511.80;;;0.54;100.00
38612;BME280;24368;52.156;20.788;2023-01-25T01:57:24;102506.84;;;0.65;100.00
38612;BME280;24368;52.156;20.788;2023-01-25T02:02:27;102509.56;;;0.60;100.00
38612;BME280;24368;52.156;20.788;2023-01-25T02:07:32;102510.20;;;0.48;100.00
38612;BME280;24368;52.156;20.788;2023-01-25T02:12:35;102513.39;;;0.37;100.00
38612;BME280;24368;52.156;20.788;2023-01-25T02:17:38;102512.71;;;0.37;100.00
38612;BME280;24368;52.156;20.788;2023-01-25T02:27:58;102500.39;;;0.37;100.00
38612;BME280;24368;52.156;20.788;2023-01-25T02:33:02;102488.08;;;0.22;100.00
38612;BME280;24368;52.156;20.788;2023-01-25T02:38:04;102482.84;;;0.09;100.00
38612;BME280;24368;52.156;20.788;2023-01-25T02:43:07;102478.48;;;0.16;100.00
38612;BME280;24368;52.156;20.788;2023-01-25T02:48:09;102476.41;;;0.24;100.00
38612;BME280;24368;52.156;20.788;2023-01-25T02:53:10;102471.59;;;0.23;100.00
38612;BME280;24368;52.156;20.788;2023-01-25T02:58:12;102470.48;;;0.11;100.00
38612;BME280;24368;52.156;20.788;2023-01-25T03:03:14;102474.66;;;0.02;100.00
38612;BME280;24368;52.156;20.788;2023-01-25T03:08:15;102473.42;;;-0.12;100.00
38612;BME280;24368;52.156;20.788;2023-01-25T03:13:17;102465.02;;;-0.09;100.00
38612;BME280;24368;52.156;20.788;2023-01-25T03:18:19;102450.37;;;-0.12;100.00
38612;BME280;24368;52.156;20.788;2023-01-25T03:23:21;102444.70;;;-0.22;100.00
38612;BME280;24368;52.156;20.788;2023-01-25T03:28:23;102437.17;;;-0.26;100.00
38612;BME280;24368;52.156;20.788;2023-01-25T03:33:24;102434.77;;;-0.36;100.00
38612;BME280;24368;52.156;20.788;2023-01-25T03:38:27;102435.08;;;-0.33;100.00
38612;BME280;24368;52.156;20.788;2023-01-25T03:43:29;102432.33;;;-0.51;100.00
38612;BME280;24368;52.156;20.788;2023-01-25T03:48:31;102419.77;;;-0.46;100.00
38612;BME280;24368;52.156;20.788;2023-01-25T03:53:32;102412.30;;;-0.62;100.00
38612;BME280;24368;52.156;20.788;2023-01-25T03:58:36;102415.32;;;-0.66;100.00
38612;BME280;24368;52.156;20.788;2023-01-25T04:03:38;102416.30;;;-0.71;100.00
38612;BME280;24368;52.156;20.788;2023-01-25T04:08:39;102407.38;;;-0.67;100.00
38612;BME280;24368;52.156;20.788;2023-01-25T04:13:41;102411.03;;;-0.68;100.00
38612;BME280;24368;52.156;20.788;2023-01-25T04:18:43;102408.51;;;-0.54;100.00
38612;BME280;24368;52.156;20.788;2023-01-25T04:23:44;102397.77;;;-0.87;100.00
38612;BME280;24368;52.156;20.788;2023-01-25T04:28:46;102401.08;;;-0.90;100.00
38612;BME280;24368;52.156;20.788;2023-01-25T04:33:48;102399.04;;;-0.91;100.00
38612;BME280;24368;52.156;20.788;2023-01-25T04:38:50;102403.45;;;-0.87;100.00
38612;BME280;24368;52.156;20.788;2023-01-25T04:43:51;102398.22;;;-0.85;100.00
38612;BME280;24368;52.156;20.788;2023-01-25T04:48:53;102387.85;;;-0.94;100.00
38612;BME280;24368;52.156;20.788;2023-01-25T04:53:55;102384.39;;;-0.94;100.00
38612;BME280;24368;52.156;20.788;2023-01-25T04:58:56;102378.84;;;-1.02;100.00
38612;BME280;24368;52.156;20.788;2023-01-25T05:03:58;102380.02;;;-0.83;100.00
38612;BME280;24368;52.156;20.788;2023-01-25T05:09:00;102385.98;;;-1.05;100.00
38612;BME280;24368;52.156;20.788;2023-01-25T05:14:02;102387.05;;;-1.06;100.00
38612;BME280;24368;52.156;20.788;2023-01-25T05:19:04;102385.11;;;-0.88;100.00
38612;BME280;24368;52.156;20.788;2023-01-25T05:24:06;102385.81;;;-0.88;100.00
38612;BME280;24368;52.156;20.788;2023-01-25T05:29:09;102384.97;;;-0.89;100.00
38612;BME280;24368;52.156;20.788;2023-01-25T05:34:11;102386.08;;;-0.92;100.00
38612;BME280;24368;52.156;20.788;2023-01-25T05:39:12;102384.97;;;-1.06;100.00
38612;BME280;24368;52.156;20.788;2023-01-25T05:44:14;102379.66;;;-1.09;100.00
38612;BME280;24368;52.156;20.788;2023-01-25T05:49:17;102372.30;;;-1.04;100.00
38612;BME280;24368;52.156;20.788;2023-01-25T05:54:18;102370.66;;;-0.92;100.00
38612;BME280;24368;52.156;20.788;2023-01-25T05:59:20;102373.96;;;-0.84;100.00
38612;BME280;24368;52.156;20.788;2023-01-25T06:04:22;102373.31;;;-0.94;100.00
38612;BME280;24368;52.156;20.788;2023-01-25T06:09:24;102368.77;;;-1.00;100.00
38612;BME280;24368;52.156;20.788;2023-01-25T06:14:27;102362.40;;;-0.94;100.00
38612;BME280;24368;52.156;20.788;2023-01-25T06:19:29;102346.02;;;-0.88;100.00
38612;BME280;24368;52.156;20.788;2023-01-25T06:24:31;102342.59;;;-0.98;100.00
38612;BME280;24368;52.156;20.788;2023-01-25T06:29:32;102344.00;;;-1.17;100.00
38612;BME280;24368;52.156;20.788;2023-01-25T06:34:34;102348.55;;;-1.29;100.00
38612;BME280;24368;52.156;20.788;2023-01-25T06:39:36;102349.70;;;-1.35;100.00
38612;BME280;24368;52.156;20.788;2023-01-25T06:44:37;102346.91;;;-1.33;100.00
38612;BME280;24368;52.156;20.788;2023-01-25T06:49:39;102349.37;;;-1.25;100.00
38612;BME280;24368;52.156;20.788;2023-01-25T06:54:41;102343.73;;;-1.39;100.00
38612;BME280;24368;52.156;20.788;2023-01-25T06:59:43;102339.87;;;-1.36;100.00
38612;BME280;24368;52.156;20.788;2023-01-25T07:04:44;102340.38;;;-1.35;100.00
38612;BME280;24368;52.156;20.788;2023-01-25T07:09:46;102335.11;;;-1.31;100.00
38612;BME280;24368;52.156;20.788;2023-01-25T07:14:48;102336.30;;;-1.39;100.00
38612;BME280;24368;52.156;20.788;2023-01-25T07:19:50;102323.42;;;-1.53;100.00
38612;BME280;24368;52.156;20.788;2023-01-25T07:24:51;102314.97;;;-1.45;100.00
38612;BME280;24368;52.156;20.788;2023-01-25T07:29:54;102316.36;;;-1.36;100.00
38612;BME280;24368;52.156;20.788;2023-01-25T07:34:56;102313.86;;;-1.50;100.00
38612;BME280;24368;52.156;20.788;2023-01-25T07:39:57;102309.64;;;-1.37;100.00
38612;BME280;24368;52.156;20.788;2023-01-25T07:44:59;102308.19;;;-1.42;100.00
38612;BME280;24368;52.156;20.788;2023-01-25T07:50:02;102309.64;;;-1.46;100.00
38612;BME280;24368;52.156;20.788;2023-01-25T07:55:04;102305.60;;;-1.42;100.00
38612;BME280;24368;52.156;20.788;2023-01-25T08:00:07;102302.45;;;-1.32;100.00
38612;BME280;24368;52.156;20.788;2023-01-25T08:05:10;102307.30;;;-1.32;100.00
38612;BME280;24368;52.156;20.788;2023-01-25T08:10:12;102299.04;;;-1.35;100.00
38612;BME280;24368;52.156;20.788;2023-01-25T08:15:14;102297.02;;;-1.19;100.00
38612;BME280;24368;52.156;20.788;2023-01-25T08:20:16;102297.22;;;-1.04;100.00
38612;BME280;24368;52.156;20.788;2023-01-25T08:25:18;102292.71;;;-0.95;100.00
38612;BME280;24368;52.156;20.788;2023-01-25T08:30:19;102287.43;;;-1.16;100.00
38612;BME280;24368;52.156;20.788;2023-01-25T08:35:21;102284.50;;;-1.08;100.00
38612;BME280;24368;52.156;20.788;2023-01-25T08:40:23;102275.83;;;-0.90;100.00
38612;BME280;24368;52.156;20.788;2023-01-25T08:45:24;102280.63;;;-1.04;100.00
38612;BME280;24368;52.156;20.788;2023-01-25T08:50:26;102274.21;;;-1.12;100.00
38612;BME280;24368;52.156;20.788;2023-01-25T08:55:28;102267.33;;;-1.22;100.00
38612;BME280;24368;52.156;20.788;2023-01-25T09:00:30;102270.32;;;-1.08;100.00
38612;BME280;24368;52.156;20.788;2023-01-25T09:05:35;102262.52;;;-0.99;100.00
38612;BME280;24368;52.156;20.788;2023-01-25T09:10:37;102257.70;;;-1.00;100.00
38612;BME280;24368;52.156;20.788;2023-01-25T09:15:39;102262.50;;;-1.06;100.00
38612;BME280;24368;52.156;20.788;2023-01-25T09:20:41;102259.23;;;-1.08;100.00
38612;BME280;24368;52.156;20.788;2023-01-25T09:25:42;102251.63;;;-1.00;100.00
38612;BME280;24368;52.156;20.788;2023-01-25T09:30:44;102248.58;;;-1.03;100.00
38612;BME280;24368;52.156;20.788;2023-01-25T09:35:47;102243.76;;;-1.11;100.00
38612;BME280;24368;52.156;20.788;2023-01-25T09:46:24;102223.21;;;-1.13;100.00
38612;BME280;24368;52.156;20.788;2023-01-25T09:56:47;102217.12;;;-1.28;100.00
38612;BME280;24368;52.156;20.788;2023-01-25T10:01:53;102208.17;;;-1.13;100.00
38612;BME280;24368;52.156;20.788;2023-01-25T10:07:03;102205.79;;;-1.15;100.00
38612;BME280;24368;52.156;20.788;2023-01-25T10:12:15;102198.25;;;-1.27;100.00
38612;BME280;24368;52.156;20.788;2023-01-25T10:17:40;102191.83;;;-1.17;100.00
38612;BME280;24368;52.156;20.788;2023-01-25T10:22:47;102183.63;;;-1.14;100.00
38612;BME280;24368;52.156;20.788;2023-01-25T10:28:41;102175.73;;;-1.10;100.00
38612;BME280;24368;52.156;20.788;2023-01-25T10:33:38;102171.39;;;-1.17;100.00
38612;BME280;24368;52.156;20.788;2023-01-25T10:38:46;102162.29;;;-1.12;100.00
38612;BME280;24368;52.156;20.788;2023-01-25T10:43:57;102147.14;;;-1.00;100.00
38612;BME280;24368;52.156;20.788;2023-01-25T10:49:23;102144.39;;;-0.94;100.00
38612;BME280;24368;52.156;20.788;2023-01-25T10:54:26;102134.62;;;-0.90;100.00
38612;BME280;24368;52.156;20.788;2023-01-25T10:59:27;102126.77;;;-1.01;100.00
38612;BME280;24368;52.156;20.788;2023-01-25T11:04:34;102124.84;;;-0.93;100.00
38612;BME280;24368;52.156;20.788;2023-01-25T11:09:38;102123.53;;;-1.03;100.00
38612;BME280;24368;52.156;20.788;2023-01-25T11:14:39;102109.51;;;-0.96;100.00
38612;BME280;24368;52.156;20.788;2023-01-25T11:19:41;102103.13;;;-1.04;100.00
38612;BME280;24368;52.156;20.788;2023-01-25T11:24:43;102101.58;;;-1.04;100.00
38612;BME280;24368;52.156;20.788;2023-01-25T11:30:05;102092.60;;;-1.05;100.00
38612;BME280;24368;52.156;20.788;2023-01-25T11:35:14;102080.55;;;-1.08;100.00
38612;BME280;24368;52.156;20.788;2023-01-25T11:40:46;102072.19;;;-1.05;100.00
38612;BME280;24368;52.156;20.788;2023-01-25T11:51:05;102080.60;;;-1.17;100.00
38612;BME280;24368;52.156;20.788;2023-01-25T12:07:50;102044.87;;;-1.13;100.00
38612;BME280;24368;52.156;20.788;2023-01-25T12:29:23;102009.48;;;-1.08;100.00
38612;BME280;24368;52.156;20.788;2023-01-25T12:34:38;101993.41;;;-1.03;100.00
38612;BME280;24368;52.156;20.788;2023-01-25T12:39:48;101991.34;;;-0.96;100.00
38612;BME280;24368;52.156;20.788;2023-01-25T12:44:58;101987.75;;;-0.92;100.00
38612;BME280;24368;52.156;20.788;2023-01-25T12:55:12;101982.88;;;-0.96;100.00
38612;BME280;24368;52.156;20.788;2023-01-25T13:05:52;101980.99;;;-0.97;100.00
38612;BME280;24368;52.156;20.788;2023-01-25T13:16:38;101976.54;;;-0.80;100.00
38612;BME280;24368;52.156;20.788;2023-01-25T13:21:43;101974.46;;;-0.86;100.00
38612;BME280;24368;52.156;20.788;2023-01-25T13:31:51;101960.08;;;-0.98;100.00
38612;BME280;24368;52.156;20.788;2023-01-25T13:36:54;101950.83;;;-1.02;100.00
38612;BME280;24368;52.156;20.788;2023-01-25T13:47:02;101932.39;;;-0.98;100.00
38612;BME280;24368;52.156;20.788;2023-01-25T13:52:04;101938.83;;;-1.05;100.00
38612;BME280;24368;52.156;20.788;2023-01-25T13:57:11;101928.41;;;-1.11;100.00
38612;BME280;24368;52.156;20.788;2023-01-25T14:02:18;101909.10;;;-1.00;100.00
38612;BME280;24368;52.156;20.788;2023-01-25T14:07:25;101907.41;;;-1.08;100.00
38612;BME280;24368;52.156;20.788;2023-01-25T14:12:41;101901.17;;;-1.21;100.00
38612;BME280;24368;52.156;20.788;2023-01-25T14:17:44;101900.60;;;-0.99;100.00
38612;BME280;24368;52.156;20.788;2023-01-25T14:22:47;101900.01;;;-1.15;100.00
38612;BME280;24368;52.156;20.788;2023-01-25T14:27:59;101897.63;;;-1.11;100.00
38612;BME280;24368;52.156;20.788;2023-01-25T14:33:13;101888.59;;;-1.15;100.00
38612;BME280;24368;52.156;20.788;2023-01-25T14:38:32;101886.39;;;-1.11;100.00
38612;BME280;24368;52.156;20.788;2023-01-25T14:43:35;101879.20;;;-1.01;100.00
38612;BME280;24368;52.156;20.788;2023-01-25T14:48:40;101866.27;;;-1.22;100.00
38612;BME280;24368;52.156;20.788;2023-01-25T14:53:45;101862.40;;;-1.18;100.00
38612;BME280;24368;52.156;20.788;2023-01-25T14:58:48;101857.31;;;-1.16;100.00
38612;BME280;24368;52.156;20.788;2023-01-25T15:03:50;101845.06;;;-1.36;100.00
38612;BME280;24368;52.156;20.788;2023-01-25T15:08:52;101843.62;;;-1.28;100.00
38612;BME280;24368;52.156;20.788;2023-01-25T15:14:19;101835.77;;;-1.25;100.00
38612;BME280;24368;52.156;20.788;2023-01-25T15:19:24;101830.89;;;-1.30;100.00
38612;BME280;24368;52.156;20.788;2023-01-25T15:24:27;101825.69;;;-1.23;100.00
38612;BME280;24368;52.156;20.788;2023-01-25T15:29:28;101826.47;;;-1.20;100.00
38612;BME280;24368;52.156;20.788;2023-01-25T15:34:30;101817.66;;;-1.21;100.00
38612;BME280;24368;52.156;20.788;2023-01-25T15:39:35;101810.07;;;-1.21;100.00
38612;BME280;24368;52.156;20.788;2023-01-25T15:44:37;101807.08;;;-1.19;100.00
38612;BME280;24368;52.156;20.788;2023-01-25T15:49:39;101807.51;;;-1.16;100.00
38612;BME280;24368;52.156;20.788;2023-01-25T15:54:41;101802.45;;;-1.15;100.00
38612;BME280;24368;52.156;20.788;2023-01-25T15:59:42;101795.89;;;-1.15;100.00
38612;BME280;24368;52.156;20.788;2023-01-25T16:04:44;101791.26;;;-1.11;100.00
38612;BME280;24368;52.156;20.788;2023-01-25T16:09:46;101791.73;;;-1.15;100.00
38612;BME280;24368;52.156;20.788;2023-01-25T16:14:48;101787.77;;;-1.10;100.00
38612;BME280;24368;52.156;20.788;2023-01-25T16:19:50;101782.52;;;-1.01;100.00
38612;BME280;24368;52.156;20.788;2023-01-25T16:24:52;101773.70;;;-0.95;100.00
38612;BME280;24368;52.156;20.788;2023-01-25T16:29:53;101766.68;;;-0.98;100.00
38612;BME280;24368;52.156;20.788;2023-01-25T16:34:55;101761.14;;;-1.04;100.00
38612;BME280;24368;52.156;20.788;2023-01-25T16:39:57;101762.95;;;-1.07;100.00
38612;BME280;24368;52.156;20.788;2023-01-25T16:44:59;101756.92;;;-1.08;100.00
38612;BME280;24368;52.156;20.788;2023-01-25T16:50:01;101745.61;;;-1.05;100.00
38612;BME280;24368;52.156;20.788;2023-01-25T16:55:03;101741.19;;;-0.96;100.00
38612;BME280;24368;52.156;20.788;2023-01-25T17:00:08;101733.89;;;-0.89;100.00
38612;BME280;24368;52.156;20.788;2023-01-25T17:05:13;101727.02;;;-0.91;100.00
38612;BME280;24368;52.156;20.788;2023-01-25T17:10:15;101716.33;;;-0.98;100.00
38612;BME280;24368;52.156;20.788;2023-01-25T17:15:17;101709.54;;;-1.02;100.00
38612;BME280;24368;52.156;20.788;2023-01-25T17:20:20;101705.89;;;-1.01;100.00
38612;BME280;24368;52.156;20.788;2023-01-25T17:25:22;101705.84;;;-0.94;100.00
38612;BME280;24368;52.156;20.788;2023-01-25T17:30:26;101691.90;;;-0.86;100.00
38612;BME280;24368;52.156;20.788;2023-01-25T17:35:27;101688.23;;;-0.96;100.00
38612;BME280;24368;52.156;20.788;2023-01-25T17:40:29;101686.36;;;-1.02;100.00
38612;BME280;24368;52.156;20.788;2023-01-25T17:45:31;101681.73;;;-1.04;100.00
38612;BME280;24368;52.156;20.788;2023-01-25T17:50:38;101680.65;;;-1.02;100.00
38612;BME280;24368;52.156;20.788;2023-01-25T17:55:40;101674.91;;;-1.01;100.00
38612;BME280;24368;52.156;20.788;2023-01-25T18:00:42;101670.40;;;-0.90;100.00
38612;BME280;24368;52.156;20.788;2023-01-25T18:05:44;101656.92;;;-0.85;100.00
38612;BME280;24368;52.156;20.788;2023-01-25T18:10:46;101652.89;;;-0.99;100.00
38612;BME280;24368;52.156;20.788;2023-01-25T18:15:53;101647.48;;;-1.04;100.00
38612;BME280;24368;52.156;20.788;2023-01-25T18:21:07;101647.44;;;-1.07;100.00
38612;BME280;24368;52.156;20.788;2023-01-25T18:26:18;101650.15;;;-1.00;100.00
38612;BME280;24368;52.156;20.788;2023-01-25T18:31:20;101653.58;;;-0.88;100.00
38612;BME280;24368;52.156;20.788;2023-01-25T18:36:21;101655.06;;;-0.91;100.00
38612;BME280;24368;52.156;20.788;2023-01-25T18:41:23;101648.09;;;-0.84;100.00
38612;BME280;24368;52.156;20.788;2023-01-25T18:46:25;101648.65;;;-0.86;100.00
38612;BME280;24368;52.156;20.788;2023-01-25T18:51:27;101644.09;;;-0.89;100.00
38612;BME280;24368;52.156;20.788;2023-01-25T18:56:30;101642.20;;;-0.95;100.00
38612;BME280;24368;52.156;20.788;2023-01-25T19:01:32;101633.56;;;-0.95;100.00
38612;BME280;24368;52.156;20.788;2023-01-25T19:06:33;101631.57;;;-0.93;100.00
38612;BME280;24368;52.156;20.788;2023-01-25T19:11:35;101630.51;;;-0.86;100.00
38612;BME280;24368;52.156;20.788;2023-01-25T19:16:37;101628.61;;;-0.76;100.00
38612;BME280;24368;52.156;20.788;2023-01-25T19:21:39;101626.30;;;-0.80;100.00
38612;BME280;24368;52.156;20.788;2023-01-25T19:26:42;101619.05;;;-0.85;100.00
38612;BME280;24368;52.156;20.788;2023-01-25T19:31:44;101609.81;;;-0.89;100.00
38612;BME280;24368;52.156;20.788;2023-01-25T19:36:46;101607.35;;;-0.88;100.00
38612;BME280;24368;52.156;20.788;2023-01-25T19:41:51;101601.91;;;-0.95;100.00
38612;BME280;24368;52.156;20.788;2023-01-25T19:46:53;101592.06;;;-0.96;100.00
38612;BME280;24368;52.156;20.788;2023-01-25T19:51:55;101592.70;;;-0.84;100.00
38612;BME280;24368;52.156;20.788;2023-01-25T19:56:57;101593.20;;;-0.83;100.00
38612;BME280;24368;52.156;20.788;2023-01-25T20:01:59;101582.65;;;-0.78;100.00
38612;BME280;24368;52.156;20.788;2023-01-25T20:07:01;101571.21;;;-0.72;100.00
38612;BME280;24368;52.156;20.788;2023-01-25T20:12:03;101567.88;;;-0.76;100.00
38612;BME280;24368;52.156;20.788;2023-01-25T20:17:08;101559.36;;;-0.81;100.00
38612;BME280;24368;52.156;20.788;2023-01-25T20:22:10;101548.84;;;-0.91;100.00
38612;BME280;24368;52.156;20.788;2023-01-25T20:27:13;101545.66;;;-0.84;100.00
38612;BME280;24368;52.156;20.788;2023-01-25T20:32:14;101541.55;;;-0.70;100.00
38612;BME280;24368;52.156;20.788;2023-01-25T20:37:16;101540.12;;;-0.69;100.00
38612;BME280;24368;52.156;20.788;2023-01-25T20:42:20;101535.27;;;-0.74;100.00
38612;BME280;24368;52.156;20.788;2023-01-25T20:47:22;101528.56;;;-0.80;100.00
38612;BME280;24368;52.156;20.788;2023-01-25T20:52:24;101527.27;;;-0.83;100.00
38612;BME280;24368;52.156;20.788;2023-01-25T20:57:25;101521.94;;;-0.79;100.00
38612;BME280;24368;52.156;20.788;2023-01-25T21:02:27;101526.31;;;-0.65;100.00
38612;BME280;24368;52.156;20.788;2023-01-25T21:07:29;101514.87;;;-0.65;100.00
38612;BME280;24368;52.156;20.788;2023-01-25T21:12:30;101512.30;;;-0.70;100.00
38612;BME280;24368;52.156;20.788;2023-01-25T21:17:33;101513.02;;;-0.71;100.00
38612;BME280;24368;52.156;20.788;2023-01-25T21:22:35;101509.88;;;-0.75;100.00
38612;BME280;24368;52.156;20.788;2023-01-25T21:27:37;101511.59;;;-0.80;100.00
38612;BME280;24368;52.156;20.788;2023-01-25T21:32:39;101504.19;;;-0.81;100.00
38612;BME280;24368;52.156;20.788;2023-01-25T21:37:41;101502.85;;;-0.78;100.00
38612;BME280;24368;52.156;20.788;2023-01-25T21:42:46;101501.27;;;-0.71;100.00
38612;BME280;24368;52.156;20.788;2023-01-25T21:47:47;101497.46;;;-0.71;100.00
38612;BME280;24368;52.156;20.788;2023-01-25T21:52:49;101499.90;;;-0.72;100.00
38612;BME280;24368;52.156;20.788;2023-01-25T21:57:51;101493.56;;;-0.74;100.00
38612;BME280;24368;52.156;20.788;2023-01-25T22:02:53;101490.24;;;-0.78;100.00
38612;BME280;24368;52.156;20.788;2023-01-25T22:07:55;101493.08;;;-0.80;100.00
38612;BME280;24368;52.156;20.788;2023-01-25T22:12:58;101491.63;;;-0.78;100.00
38612;BME280;24368;52.156;20.788;2023-01-25T22:18:00;101487.23;;;-0.71;100.00
38612;BME280;24368;52.156;20.788;2023-01-25T22:23:01;101483.35;;;-0.64;100.00
38612;BME280;24368;52.156;20.788;2023-01-25T22:28:03;101474.91;;;-0.60;100.00
38612;BME280;24368;52.156;20.788;2023-01-25T22:33:07;101471.61;;;-0.60;100.00
38612;BME280;24368;52.156;20.788;2023-01-25T22:38:09;101466.75;;;-0.59;100.00
38612;BME280;24368;52.156;20.788;2023-01-25T22:43:11;101460.48;;;-0.63;100.00
38612;BME280;24368;52.156;20.788;2023-01-25T22:48:12;101456.84;;;-0.63;100.00
38612;BME280;24368;52.156;20.788;2023-01-25T22:53:14;101446.73;;;-0.66;100.00
38612;BME280;24368;52.156;20.788;2023-01-25T22:58:16;101440.18;;;-0.67;100.00
38612;BME280;24368;52.156;20.788;2023-01-25T23:03:17;101447.77;;;-0.61;100.00
38612;BME280;24368;52.156;20.788;2023-01-25T23:08:19;101439.45;;;-0.52;100.00
38612;BME280;24368;52.156;20.788;2023-01-25T23:13:21;101430.16;;;-0.44;100.00
38612;BME280;24368;52.156;20.788;2023-01-25T23:18:22;101420.11;;;-0.48;100.00
38612;BME280;24368;52.156;20.788;2023-01-25T23:23:43;101408.42;;;-0.50;100.00
38612;BME280;24368;52.156;20.788;2023-01-25T23:28:49;101394.01;;;-0.58;100.00
38612;BME280;24368;52.156;20.788;2023-01-25T23:33:59;101389.53;;;-0.63;100.00
38612;BME280;24368;52.156;20.788;2023-01-25T23:39:01;101382.71;;;-0.61;100.00
38612;BME280;24368;52.156;20.788;2023-01-25T23:44:03;101380.33;;;-0.58;100.00
38612;BME280;24368;52.156;20.788;2023-01-25T23:49:05;101379.02;;;-0.51;100.00
38612;BME280;24368;52.156;20.788;2023-01-25T23:54:07;101360.13;;;-0.41;100.00
38612;BME280;24368;52.156;20.788;2023-01-25T23:59:09;101358.15;;;-0.39;100.00
